createdAt,value
2022-09-20T00:00:38.187Z,10.28
2022-09-20T00:02:36.380Z,10.24
2022-09-20T00:04:36.065Z,10.10
2022-09-20T00:06:36.031Z,10.05
2022-09-20T00:08:34.532Z,10.07
2022-09-20T00:10:39.270Z,10.09
2022-09-20T00:12:37.686Z,10.08
2022-09-20T00:14:37.157Z,10.09
2022-09-20T00:16:39.097Z,10.09
2022-09-20T00:18:40.296Z,10.10
2022-09-20T00:20:47.195Z,10.09
2022-09-20T00:22:49.670Z,10.05
2022-09-20T00:24:49.143Z,10.06
2022-09-20T00:26:49.045Z,10.06
2022-09-20T00:28:50.873Z,10.04
2022-09-20T00:30:50.230Z,9.98
2022-09-20T00:32:48.431Z,9.99
2022-09-20T00:35:03.886Z,10.00
2022-09-20T00:37:03.483Z,9.94
2022-09-20T00:39:03.533Z,9.78
2022-09-20T00:41:01.550Z,9.70
2022-09-20T00:42:59.760Z,9.70
2022-09-20T00:44:59.715Z,9.75
2022-09-20T00:46:58.007Z,9.81
2022-09-20T00:49:00.452Z,9.83
2022-09-20T00:51:03.133Z,9.79
2022-09-20T00:53:08.392Z,9.69
2022-09-20T00:55:09.906Z,9.59
2022-09-20T00:57:08.134Z,9.55
2022-09-20T00:59:16.542Z,9.57
2022-09-20T01:01:15.215Z,9.57
2022-09-20T01:03:15.441Z,9.59
2022-09-20T01:05:15.994Z,9.65
2022-09-20T01:07:17.265Z,9.70
2022-09-20T01:09:16.719Z,9.76
2022-09-20T01:11:14.964Z,9.78
2022-09-20T01:13:13.130Z,9.80
2022-09-20T01:15:13.096Z,9.77
2022-09-20T01:17:12.804Z,9.72
2022-09-20T01:19:26.464Z,9.64
2022-09-20T01:21:26.320Z,9.62
2022-09-20T01:23:35.185Z,9.58
2022-09-20T01:25:57.530Z,9.56
2022-09-20T01:27:57.338Z,9.59
2022-09-20T01:30:06.181Z,9.59
2022-09-20T01:32:11.223Z,9.59
2022-09-20T01:34:14.547Z,9.56
2022-09-20T01:36:19.005Z,9.58
2022-09-20T01:38:24.632Z,9.51
2022-09-20T01:40:31.834Z,9.35
2022-09-20T01:42:34.847Z,9.34
2022-09-20T01:44:39.920Z,9.40
2022-09-20T01:46:38.328Z,9.52
2022-09-20T01:48:40.593Z,9.49
2022-09-20T01:50:53.825Z,9.36
2022-09-20T01:53:23.295Z,9.20
2022-09-20T01:56:02.146Z,9.12
2022-09-20T01:58:23.447Z,9.34
2022-09-20T02:00:27.450Z,9.32
2022-09-20T02:03:00.997Z,9.34
2022-09-20T02:05:25.208Z,9.37
2022-09-20T02:08:00.946Z,9.28
2022-09-20T02:10:14.492Z,9.09
2022-09-20T02:12:33.665Z,8.88
2022-09-20T02:14:49.744Z,8.78
2022-09-20T02:16:54.864Z,8.69
2022-09-20T02:19:18.162Z,8.58
2022-09-20T02:21:31.234Z,8.50
2022-09-20T02:23:40.820Z,8.43
2022-09-20T02:25:57.245Z,8.34
2022-09-20T02:28:18.668Z,8.38
2022-09-20T02:30:30.621Z,8.43
2022-09-20T02:32:55.833Z,8.46
2022-09-20T02:35:07.136Z,8.41
2022-09-20T02:37:27.016Z,8.40
2022-09-20T02:39:34.376Z,8.41
2022-09-20T02:41:58.242Z,8.52
2022-09-20T02:44:06.535Z,8.62
2022-09-20T02:46:12.165Z,8.61
2022-09-20T02:48:14.608Z,8.76
2022-09-20T02:50:23.019Z,8.74
2022-09-20T02:52:30.233Z,8.82
2022-09-20T02:54:35.382Z,8.85
2022-09-20T02:56:42.761Z,8.84
2022-09-20T02:58:51.189Z,8.88
2022-09-20T03:00:56.671Z,8.89
2022-09-20T03:03:07.713Z,8.80
2022-09-20T03:05:20.022Z,8.78
2022-09-20T03:07:26.829Z,8.61
2022-09-20T03:09:33.537Z,8.61
2022-09-20T03:11:36.529Z,8.55
2022-09-20T03:13:51.306Z,8.50
2022-09-20T03:15:55.246Z,8.49
2022-09-20T03:18:07.584Z,8.47
2022-09-20T03:20:16.635Z,8.43
2022-09-20T03:22:28.021Z,8.38
2022-09-20T03:24:41.091Z,8.22
2022-09-20T03:26:52.796Z,8.10
2022-09-20T03:29:04.066Z,8.05
2022-09-20T03:31:12.316Z,8.05
2022-09-20T03:33:17.781Z,8.02
2022-09-20T03:35:32.073Z,8.06
2022-09-20T03:37:57.644Z,8.07
2022-09-20T03:40:25.833Z,8.02
2022-09-20T03:42:27.027Z,7.98
2022-09-20T03:44:52.764Z,7.88
2022-09-20T03:46:59.279Z,7.78
2022-09-20T03:49:30.055Z,7.79
2022-09-20T03:51:42.157Z,7.79
2022-09-20T03:54:17.320Z,7.77
2022-09-20T03:56:40.717Z,7.81
2022-09-20T03:58:57.202Z,7.85
2022-09-20T04:01:06.891Z,7.82
2022-09-20T04:03:24.609Z,7.82
2022-09-20T04:05:31.717Z,7.75
2022-09-20T04:07:44.195Z,7.68
2022-09-20T04:10:02.413Z,7.70
2022-09-20T04:12:08.283Z,7.77
2022-09-20T04:14:17.256Z,7.88
2022-09-20T04:16:26.996Z,8.06
2022-09-20T04:18:35.734Z,8.12
2022-09-20T04:20:41.199Z,8.10
2022-09-20T04:22:44.473Z,8.13
2022-09-20T04:24:51.248Z,8.13
2022-09-20T04:26:53.077Z,8.33
2022-09-20T04:28:58.549Z,8.34
2022-09-20T04:31:05.134Z,8.40
2022-09-20T04:33:12.663Z,8.41
2022-09-20T04:35:42.325Z,8.43
2022-09-20T04:37:45.822Z,8.98
2022-09-20T04:39:54.491Z,9.67
2022-09-20T04:42:19.488Z,10.18
2022-09-20T04:44:54.513Z,10.79
2022-09-20T04:47:25.243Z,10.81
2022-09-20T04:50:00.291Z,11.07
2022-09-20T04:52:40.977Z,11.29
2022-09-20T04:55:12.341Z,11.37
2022-09-20T04:57:40.521Z,10.94
2022-09-20T04:59:56.935Z,10.99
2022-09-20T05:02:27.082Z,10.88
2022-09-20T05:05:09.995Z,11.17
2022-09-20T05:07:33.417Z,11.60
2022-09-20T05:10:14.751Z,11.56
2022-09-20T05:12:37.549Z,11.45
2022-09-20T05:14:53.173Z,11.60
2022-09-20T05:17:09.354Z,11.52
2022-09-20T05:19:15.149Z,11.85
2022-09-20T05:21:35.758Z,11.71
2022-09-20T05:24:05.134Z,12.16
2022-09-20T05:26:12.048Z,12.31
2022-09-20T05:28:19.286Z,12.47
2022-09-20T05:30:26.104Z,12.34
2022-09-20T05:32:31.722Z,11.87
2022-09-20T05:34:42.507Z,12.10
2022-09-20T05:36:50.697Z,12.20
2022-09-20T05:38:51.716Z,12.57
2022-09-20T05:41:05.879Z,12.45
2022-09-20T05:43:11.958Z,12.31
2022-09-20T05:45:26.706Z,12.68
2022-09-20T05:47:29.097Z,13.01
2022-09-20T05:49:42.952Z,13.85
2022-09-20T05:52:01.155Z,14.50
2022-09-20T05:54:25.251Z,14.41
2022-09-20T05:56:41.125Z,14.52
2022-09-20T05:59:03.174Z,14.23
2022-09-20T06:01:05.677Z,14.15
2022-09-20T06:03:14.626Z,13.61
2022-09-20T06:05:17.132Z,13.74
2022-09-20T06:07:28.234Z,13.91
2022-09-20T06:09:43.712Z,13.93
2022-09-20T06:12:12.814Z,13.39
2022-09-20T06:14:22.062Z,13.42
2022-09-20T06:16:29.643Z,12.95
2022-09-20T06:18:33.790Z,13.01
2022-09-20T06:20:38.445Z,12.89
2022-09-20T06:22:44.004Z,13.07
2022-09-20T06:24:48.297Z,13.19
2022-09-20T06:26:46.557Z,13.51
2022-09-20T06:28:49.432Z,13.75
2022-09-20T06:30:51.406Z,13.79
2022-09-20T06:32:57.379Z,14.19
2022-09-20T06:34:55.988Z,14.08
2022-09-20T06:37:21.438Z,14.08
2022-09-20T06:39:45.092Z,13.88
2022-09-20T06:41:44.447Z,14.51
2022-09-20T06:43:43.100Z,14.86
2022-09-20T06:45:41.683Z,14.57
2022-09-20T06:47:41.514Z,14.59
2022-09-20T06:49:42.480Z,14.65
2022-09-20T06:51:41.995Z,14.77
2022-09-20T06:53:42.529Z,14.75
2022-09-20T06:55:43.292Z,14.49
2022-09-20T06:57:41.547Z,14.64
2022-09-20T06:59:39.774Z,14.82
2022-09-20T07:01:38.318Z,14.95
2022-09-20T07:03:38.070Z,14.80
2022-09-20T07:05:37.096Z,14.76
2022-09-20T07:07:35.300Z,14.84
2022-09-20T07:09:33.467Z,14.85
2022-09-20T07:11:35.119Z,15.10
2022-09-20T07:13:33.456Z,14.94
2022-09-20T07:15:33.565Z,14.90
2022-09-20T07:17:31.800Z,14.78
2022-09-20T07:19:31.548Z,15.00
2022-09-20T07:21:32.559Z,14.68
2022-09-20T07:23:31.915Z,14.85
2022-09-20T07:25:30.454Z,14.93
2022-09-20T07:27:29.543Z,15.11
2022-09-20T07:29:28.293Z,14.98
2022-09-20T07:31:28.567Z,14.89
2022-09-20T07:33:26.855Z,15.09
2022-09-20T07:35:26.429Z,15.15
2022-09-20T07:37:24.593Z,14.61
2022-09-20T07:39:22.771Z,14.59
2022-09-20T07:41:22.942Z,14.98
2022-09-20T07:43:22.743Z,14.83
2022-09-20T07:45:21.128Z,15.11
2022-09-20T07:47:19.161Z,15.26
2022-09-20T07:49:18.595Z,15.15
2022-09-20T07:51:20.460Z,15.21
2022-09-20T07:53:18.885Z,14.83
2022-09-20T07:55:17.184Z,15.39
2022-09-20T07:57:15.268Z,15.82
2022-09-20T07:59:13.701Z,15.94
2022-09-20T08:01:14.429Z,15.99
2022-09-20T08:03:12.958Z,16.29
2022-09-20T08:05:11.130Z,16.36
2022-09-20T08:07:10.889Z,15.66
2022-09-20T08:09:11.471Z,15.60
2022-09-20T08:11:11.761Z,15.71
2022-09-20T08:15:29.274Z,16.28
2022-09-20T08:17:27.487Z,16.42
2022-09-20T08:19:25.765Z,16.34
2022-09-20T08:21:24.651Z,16.21
2022-09-20T08:23:24.391Z,16.40
2022-09-20T08:25:22.731Z,16.53
2022-09-20T08:27:20.992Z,16.65
2022-09-20T08:29:19.274Z,16.51
2022-09-20T08:31:20.249Z,16.35
2022-09-20T08:33:20.752Z,17.16
2022-09-20T08:35:18.946Z,17.13
2022-09-20T08:37:17.234Z,16.81
2022-09-20T08:41:38.453Z,16.39
2022-09-20T08:43:45.273Z,16.32
2022-09-20T08:45:43.965Z,17.76
2022-09-20T08:47:50.011Z,18.97
2022-09-20T08:49:48.603Z,19.04
2022-09-20T08:51:50.641Z,19.92
2022-09-20T08:53:51.332Z,19.78
2022-09-20T08:55:50.924Z,19.17
2022-09-20T08:57:51.987Z,18.62
2022-09-20T08:59:50.624Z,18.27
2022-09-20T09:01:49.988Z,17.68
2022-09-20T09:03:48.651Z,17.28
2022-09-20T09:05:48.517Z,17.02
2022-09-20T09:07:48.189Z,16.53
2022-09-20T09:09:47.836Z,16.62
2022-09-20T09:11:49.228Z,16.57
2022-09-20T09:13:53.573Z,17.22
2022-09-20T09:15:56.975Z,17.29
2022-09-20T09:17:56.170Z,19.59
2022-09-20T09:19:56.077Z,22.12
2022-09-20T09:21:58.731Z,24.70
2022-09-20T09:24:04.710Z,25.65
2022-09-20T09:26:05.495Z,25.18
2022-09-20T09:28:15.029Z,23.38
2022-09-20T09:30:22.121Z,22.05
2022-09-20T09:32:23.815Z,20.65
2022-09-20T09:34:27.626Z,20.21
2022-09-20T09:36:26.513Z,18.73
2022-09-20T09:38:26.802Z,18.01
2022-09-20T09:40:26.420Z,18.54
2022-09-20T09:42:28.985Z,18.68
2022-09-20T09:44:32.904Z,18.71
2022-09-20T09:46:32.699Z,18.16
2022-09-20T09:48:32.109Z,17.68
2022-09-20T09:50:32.141Z,17.27
2022-09-20T09:52:33.493Z,16.87
2022-09-20T09:54:36.035Z,16.44
2022-09-20T09:57:00.914Z,16.20
2022-09-20T09:59:17.252Z,17.94
2022-09-20T10:01:33.080Z,20.49
2022-09-20T10:03:44.071Z,20.20
2022-09-20T10:05:51.732Z,19.71
2022-09-20T10:08:00.282Z,18.65
2022-09-20T10:10:15.276Z,18.06
2022-09-20T10:12:23.660Z,17.41
2022-09-20T10:14:34.620Z,16.91
2022-09-20T10:16:51.445Z,16.61
2022-09-20T10:18:56.110Z,18.05
2022-09-20T10:21:07.643Z,20.76
2022-09-20T10:23:51.382Z,22.52
2022-09-20T10:25:50.577Z,25.35
2022-09-20T10:28:02.382Z,26.63
2022-09-20T10:30:09.511Z,27.62
2022-09-20T10:32:27.164Z,27.99
2022-09-20T10:34:54.223Z,27.45
2022-09-20T10:36:56.005Z,25.50
2022-09-20T10:39:06.130Z,24.57
2022-09-20T10:41:33.552Z,22.81
2022-09-20T10:43:49.057Z,20.60
2022-09-20T10:48:26.541Z,19.98
2022-09-20T10:50:39.007Z,19.76
2022-09-20T10:52:53.292Z,19.13
2022-09-20T10:55:12.597Z,18.88
2022-09-20T10:57:30.343Z,18.53
2022-09-20T10:59:45.053Z,17.62
2022-09-20T11:01:55.118Z,17.58
2022-09-20T11:04:26.902Z,17.68
2022-09-20T11:06:34.373Z,18.03
2022-09-20T11:08:35.636Z,18.06
2022-09-20T11:10:39.311Z,18.07
2022-09-20T11:12:42.691Z,18.02
2022-09-20T11:14:48.379Z,17.78
2022-09-20T11:16:54.281Z,17.97
2022-09-20T11:19:00.390Z,18.24
2022-09-20T11:21:08.728Z,18.29
2022-09-20T11:23:17.588Z,17.84
2022-09-20T11:25:22.280Z,17.81
2022-09-20T11:27:28.276Z,17.83
2022-09-20T11:29:35.911Z,17.66
2022-09-20T11:31:42.170Z,17.31
2022-09-20T11:33:45.811Z,17.47
2022-09-20T11:35:47.736Z,17.59
2022-09-20T11:37:56.925Z,17.52
2022-09-20T11:39:56.784Z,17.40
2022-09-20T11:41:59.948Z,17.44
2022-09-20T11:44:07.111Z,17.37
2022-09-20T11:46:08.098Z,17.50
2022-09-20T11:48:15.608Z,17.48
2022-09-20T11:50:51.583Z,17.48
2022-09-20T11:53:07.416Z,17.38
2022-09-20T11:55:32.227Z,17.25
2022-09-20T11:57:30.885Z,17.23
2022-09-20T11:59:34.706Z,17.35
2022-09-20T12:01:35.696Z,17.39
2022-09-20T12:03:40.260Z,17.43
2022-09-20T12:05:41.560Z,17.41
2022-09-20T12:07:42.390Z,17.09
2022-09-20T12:09:45.316Z,16.98
2022-09-20T12:11:43.663Z,17.14
2022-09-20T12:13:44.695Z,17.17
2022-09-20T12:15:44.191Z,17.15
2022-09-20T12:18:24.940Z,17.25
2022-09-20T12:21:17.500Z,17.36
2022-09-20T12:23:52.754Z,17.56
2022-09-20T12:26:04.694Z,17.65
2022-09-20T12:28:02.901Z,17.72
2022-09-20T12:30:08.165Z,17.60
2022-09-20T12:32:35.544Z,17.70
2022-09-20T12:34:37.585Z,17.80
2022-09-20T12:36:38.281Z,17.79
2022-09-20T12:38:49.213Z,17.91
2022-09-20T12:41:00.533Z,17.92
2022-09-20T12:42:58.657Z,17.90
2022-09-20T12:45:02.575Z,17.74
2022-09-20T12:47:03.123Z,17.52
2022-09-20T12:49:46.545Z,17.49
2022-09-20T12:52:10.159Z,17.55
2022-09-20T12:54:11.542Z,17.52
2022-09-20T12:56:18.001Z,17.44
2022-09-20T12:58:24.138Z,17.24
2022-09-20T13:00:38.349Z,16.81
2022-09-20T13:02:44.973Z,16.72
2022-09-20T13:05:32.159Z,16.68
2022-09-20T13:07:49.100Z,16.49
2022-09-20T13:09:49.693Z,16.50
2022-09-20T13:11:55.977Z,16.56
2022-09-20T13:13:58.394Z,16.32
2022-09-20T13:16:01.488Z,16.33
2022-09-20T13:18:03.676Z,16.45
2022-09-20T13:20:03.122Z,16.31
2022-09-20T13:22:07.999Z,16.20
2022-09-20T13:24:08.341Z,16.17
2022-09-20T13:26:10.520Z,16.15
2022-09-20T13:28:20.467Z,16.02
2022-09-20T13:30:21.340Z,16.07
2022-09-20T13:32:23.775Z,16.08
2022-09-20T13:34:24.465Z,16.02
2022-09-20T13:36:29.201Z,16.14
2022-09-20T13:38:32.672Z,16.12
2022-09-20T13:40:35.667Z,16.08
2022-09-20T13:42:35.753Z,16.02
2022-09-20T13:44:35.193Z,16.19
2022-09-20T13:46:34.490Z,16.17
2022-09-20T13:48:32.633Z,16.10
2022-09-20T13:50:33.683Z,16.04
2022-09-20T13:52:33.101Z,16.02
2022-09-20T13:54:34.593Z,16.10
2022-09-20T13:56:33.093Z,16.00
2022-09-20T13:58:34.319Z,15.96
2022-09-20T14:00:33.906Z,15.92
2022-09-20T14:02:34.288Z,15.62
2022-09-20T14:04:35.877Z,15.65
2022-09-20T14:06:34.513Z,15.67
2022-09-20T14:08:36.229Z,15.69
2022-09-20T14:10:37.673Z,15.57
2022-09-20T14:12:35.936Z,15.65
2022-09-20T14:14:35.904Z,15.58
2022-09-20T14:16:38.810Z,15.52
2022-09-20T14:18:37.613Z,15.48
2022-09-20T14:20:36.103Z,15.45
2022-09-20T14:22:34.594Z,15.53
2022-09-20T14:24:35.731Z,15.44
2022-09-20T14:26:37.402Z,15.34
2022-09-20T14:28:35.676Z,15.51
2022-09-20T14:30:37.427Z,15.46
2022-09-20T14:32:40.256Z,15.39
2022-09-20T14:34:39.778Z,15.42
2022-09-20T14:36:38.931Z,15.37
2022-09-20T14:38:37.879Z,15.32
2022-09-20T14:40:44.933Z,15.28
2022-09-20T14:42:47.883Z,15.22
2022-09-20T14:44:46.107Z,15.29
2022-09-20T14:46:44.489Z,15.24
2022-09-20T14:48:42.879Z,15.29
2022-09-20T14:50:45.678Z,15.30
2022-09-20T14:52:45.546Z,15.16
2022-09-20T14:54:46.589Z,15.21
2022-09-20T14:56:51.022Z,15.15
2022-09-20T14:59:22.062Z,14.98
2022-09-20T15:01:26.019Z,14.90
2022-09-20T15:03:28.657Z,14.82
2022-09-20T15:05:29.470Z,14.80
2022-09-20T15:07:28.153Z,14.82
2022-09-20T15:09:26.562Z,14.75
2022-09-20T15:11:24.706Z,14.77
2022-09-20T15:13:22.938Z,14.66
2022-09-20T15:15:22.575Z,14.59
2022-09-20T15:17:23.691Z,14.57
2022-09-20T15:19:22.604Z,14.52
2022-09-20T15:21:20.671Z,14.42
2022-09-20T15:23:19.104Z,14.55
2022-09-20T15:25:21.107Z,14.55
2022-09-20T15:27:19.398Z,14.57
2022-09-20T15:29:18.681Z,14.61
2022-09-20T15:31:20.019Z,14.51
2022-09-20T15:33:18.906Z,14.34
2022-09-20T15:35:19.647Z,14.29
2022-09-20T15:37:17.947Z,14.30
2022-09-20T15:39:16.738Z,14.20
2022-09-20T15:41:17.176Z,14.19
2022-09-20T15:43:17.456Z,14.20
2022-09-20T15:45:15.600Z,14.10
2022-09-20T15:47:16.135Z,14.00
2022-09-20T15:49:14.501Z,14.07
2022-09-20T15:51:14.412Z,14.07
2022-09-20T15:53:12.940Z,13.91
2022-09-20T15:55:12.309Z,13.76
2022-09-20T15:57:13.656Z,13.72
2022-09-20T15:59:14.694Z,13.69
2022-09-20T16:01:13.155Z,13.65
2022-09-20T16:03:12.744Z,13.60
2022-09-20T16:05:11.206Z,13.57
2022-09-20T16:07:10.342Z,13.55
2022-09-20T16:09:09.017Z,13.57
2022-09-20T16:11:08.907Z,13.48
2022-09-20T16:13:06.966Z,13.37
2022-09-20T16:15:07.717Z,13.22
2022-09-20T16:17:06.168Z,13.08
2022-09-20T16:19:24.039Z,13.01
2022-09-20T16:21:23.209Z,13.03
2022-09-20T16:23:25.802Z,13.01
2022-09-20T16:25:24.268Z,13.03
2022-09-20T16:27:22.731Z,12.98
2022-09-20T16:29:22.461Z,12.98
2022-09-20T16:31:34.907Z,12.94
2022-09-20T16:33:33.936Z,12.91
2022-09-20T16:35:34.244Z,12.82
2022-09-20T16:37:32.910Z,12.72
2022-09-20T16:39:31.976Z,12.58
2022-09-20T16:41:30.296Z,12.47
2022-09-20T16:43:28.900Z,12.45
2022-09-20T16:45:30.259Z,12.45
2022-09-20T16:47:29.708Z,12.48
2022-09-20T16:49:28.934Z,12.41
2022-09-20T16:51:33.346Z,12.38
2022-09-20T16:53:31.618Z,12.34
2022-09-20T16:55:29.784Z,12.29
2022-09-20T16:57:29.070Z,12.19
2022-09-20T16:59:27.389Z,12.06
2022-09-20T17:01:25.556Z,11.98
2022-09-20T17:03:28.306Z,11.94
2022-09-20T17:05:26.501Z,11.87
2022-09-20T17:07:26.038Z,11.94
2022-09-20T17:09:24.290Z,11.96
2022-09-20T17:11:25.116Z,11.84
2022-09-20T17:13:24.315Z,11.85
2022-09-20T17:15:22.721Z,11.84
2022-09-20T17:17:24.935Z,11.75
2022-09-20T17:19:23.152Z,11.67
2022-09-20T17:21:22.627Z,11.64
2022-09-20T17:23:22.212Z,11.55
2022-09-20T17:25:20.442Z,11.57
2022-09-20T17:27:18.770Z,11.52
2022-09-20T17:29:18.601Z,11.50
2022-09-20T17:31:20.768Z,11.49
2022-09-20T17:33:19.106Z,11.48
2022-09-20T17:35:18.333Z,11.41
2022-09-20T17:37:16.553Z,11.34
2022-09-20T17:39:17.402Z,11.30
2022-09-20T17:41:17.258Z,11.27
2022-09-20T17:43:16.663Z,11.25
2022-09-20T17:45:15.100Z,11.25
2022-09-20T17:47:13.397Z,11.26
2022-09-20T17:49:18.106Z,11.29
2022-09-20T17:51:18.150Z,11.30
2022-09-20T17:53:16.412Z,11.28
2022-09-20T17:55:17.419Z,11.24
2022-09-20T17:57:15.473Z,11.20
2022-09-20T17:59:15.771Z,11.18
2022-09-20T18:01:18.981Z,11.04
2022-09-20T18:03:17.555Z,10.92
2022-09-20T18:05:17.913Z,10.91
2022-09-20T18:07:18.093Z,10.87
2022-09-20T18:09:18.003Z,10.87
2022-09-20T18:11:20.370Z,10.90
2022-09-20T18:13:18.629Z,10.92
2022-09-20T18:15:19.739Z,10.91
2022-09-20T18:17:18.163Z,10.89
2022-09-20T18:19:16.759Z,10.92
2022-09-20T18:21:17.120Z,10.86
2022-09-20T18:23:15.524Z,10.85
2022-09-20T18:25:15.823Z,10.80
2022-09-20T18:27:15.584Z,10.70
2022-09-20T18:29:23.742Z,10.61
2022-09-20T18:31:23.002Z,10.56
2022-09-20T18:33:21.495Z,10.53
2022-09-20T18:35:19.556Z,10.49
2022-09-20T18:37:18.210Z,10.47
2022-09-20T18:39:16.560Z,10.59
2022-09-20T18:41:15.227Z,10.59
2022-09-20T18:43:15.120Z,10.59
2022-09-20T18:45:32.625Z,10.47
2022-09-20T18:47:32.826Z,10.39
2022-09-20T18:49:33.569Z,10.39
2022-09-20T18:51:39.157Z,10.35
2022-09-20T18:53:42.073Z,10.29
2022-09-20T18:55:44.731Z,10.22
2022-09-20T18:57:46.170Z,10.17
2022-09-20T18:59:54.050Z,10.10
2022-09-20T19:02:30.359Z,10.11
2022-09-20T19:04:45.394Z,10.11
2022-09-20T19:06:49.766Z,10.20
2022-09-20T19:08:52.473Z,10.21
2022-09-20T19:10:54.929Z,10.17
2022-09-20T19:12:59.593Z,10.10
2022-09-20T19:15:33.391Z,10.02
2022-09-20T19:17:53.176Z,9.95
2022-09-20T19:19:54.686Z,9.86
2022-09-20T19:21:59.350Z,9.92
2022-09-20T19:24:09.488Z,9.89
2022-09-20T19:26:14.931Z,9.93
2022-09-20T19:28:17.599Z,9.90
2022-09-20T19:30:17.340Z,9.93
2022-09-20T19:32:21.741Z,9.95
2022-09-20T19:34:21.588Z,9.89
2022-09-20T19:36:21.862Z,9.83
2022-09-20T19:38:35.655Z,9.80
2022-09-20T19:40:45.070Z,9.75
2022-09-20T19:43:06.555Z,9.80
2022-09-20T19:45:16.923Z,9.82
2022-09-20T19:47:34.389Z,9.79
2022-09-20T19:49:48.433Z,9.81
2022-09-20T19:51:59.508Z,9.79
2022-09-20T19:54:06.588Z,9.79
2022-09-20T19:56:21.654Z,9.70
2022-09-20T19:58:21.184Z,9.63
2022-09-20T20:00:22.239Z,9.59
2022-09-20T20:02:46.678Z,9.52
2022-09-20T20:04:50.853Z,9.47
2022-09-20T20:06:59.016Z,9.56
2022-09-20T20:09:06.358Z,9.61
2022-09-20T20:11:11.202Z,9.62
2022-09-20T20:13:30.125Z,9.59
2022-09-20T20:15:40.774Z,9.62
2022-09-20T20:17:49.829Z,9.63
2022-09-20T20:20:06.183Z,9.60
2022-09-20T20:22:13.208Z,9.51
2022-09-20T20:24:22.111Z,9.41
2022-09-20T20:26:22.405Z,9.43
2022-09-20T20:28:23.974Z,9.43
2022-09-20T20:30:22.424Z,9.49
2022-09-20T20:32:20.956Z,9.53
2022-09-20T20:34:20.801Z,9.52
2022-09-20T20:36:21.427Z,9.53
2022-09-20T20:38:20.117Z,9.52
2022-09-20T20:40:18.765Z,9.49
2022-09-20T20:42:17.713Z,9.49
2022-09-20T20:44:17.076Z,9.46
2022-09-20T20:46:18.634Z,9.37
2022-09-20T20:48:20.646Z,9.32
2022-09-20T20:50:20.576Z,9.22
2022-09-20T20:52:18.764Z,9.14
2022-09-20T20:54:17.659Z,9.07
2022-09-20T20:56:20.192Z,9.14
2022-09-20T20:58:18.480Z,9.15
2022-09-20T21:00:17.575Z,9.13
2022-09-20T21:02:16.074Z,9.10
2022-09-20T21:04:17.132Z,9.11
2022-09-20T21:06:18.306Z,9.13
2022-09-20T21:08:17.062Z,9.06
2022-09-20T21:10:15.720Z,9.06
2022-09-20T21:12:14.912Z,9.06
2022-09-20T21:14:15.051Z,8.93
2022-09-20T21:16:15.970Z,8.83
2022-09-20T21:18:15.462Z,8.77
2022-09-20T21:20:14.051Z,8.74
2022-09-20T21:22:13.948Z,8.78
2022-09-20T21:24:15.470Z,8.85
2022-09-20T21:26:15.719Z,8.87
2022-09-20T21:28:14.266Z,8.89
2022-09-20T21:30:13.944Z,8.88
2022-09-20T21:32:12.376Z,8.86
2022-09-20T21:34:14.116Z,8.84
2022-09-20T21:36:14.266Z,8.77
2022-09-20T21:38:13.928Z,8.66
2022-09-20T21:40:12.696Z,8.58
2022-09-20T21:42:13.181Z,8.54
2022-09-20T21:44:12.302Z,8.53
2022-09-20T21:46:15.291Z,8.55
2022-09-20T21:48:13.909Z,8.59
2022-09-20T21:50:15.672Z,8.60
2022-09-20T21:52:14.892Z,8.55
2022-09-20T21:54:14.922Z,8.54
2022-09-20T21:56:15.547Z,8.58
2022-09-20T21:58:13.913Z,8.59
2022-09-20T22:00:13.001Z,8.61
2022-09-20T22:02:11.156Z,8.51
2022-09-20T22:04:10.795Z,8.47
2022-09-20T22:06:11.471Z,8.44
2022-09-20T22:08:09.689Z,8.44
2022-09-20T22:10:10.260Z,8.40
2022-09-20T22:12:08.803Z,8.47
2022-09-20T22:14:08.292Z,8.51
2022-09-20T22:16:08.947Z,8.50
2022-09-20T22:18:07.173Z,8.48
2022-09-20T22:20:09.212Z,8.51
2022-09-20T22:22:07.475Z,8.47
2022-09-20T22:24:08.215Z,8.50
2022-09-20T22:26:10.560Z,8.58
2022-09-20T22:28:08.700Z,8.61
2022-09-20T22:30:08.599Z,8.56
2022-09-20T22:32:06.831Z,8.55
2022-09-20T22:34:07.305Z,8.50
2022-09-20T22:36:08.861Z,8.43
2022-09-20T22:38:07.496Z,8.41
2022-09-20T22:40:06.776Z,8.40
2022-09-20T22:42:06.646Z,8.40
2022-09-20T22:44:05.465Z,8.39
2022-09-20T22:46:05.670Z,8.38
2022-09-20T22:48:04.028Z,8.35
2022-09-20T22:50:02.538Z,8.33
2022-09-20T22:52:00.847Z,8.31
2022-09-20T22:53:59.105Z,8.28
2022-09-20T22:56:03.856Z,8.28
2022-09-20T22:58:03.433Z,8.19
2022-09-20T23:00:01.969Z,8.11
2022-09-20T23:02:00.244Z,8.05
2022-09-20T23:04:01.042Z,8.01
2022-09-20T23:05:59.228Z,7.95
2022-09-20T23:07:57.511Z,7.95
2022-09-20T23:09:55.716Z,8.00
2022-09-20T23:11:54.317Z,8.04
2022-09-20T23:13:57.019Z,8.00
2022-09-20T23:15:55.202Z,8.00
2022-09-20T23:17:53.777Z,7.96
2022-09-20T23:19:52.797Z,7.89
2022-09-20T23:21:50.850Z,7.82
2022-09-20T23:23:53.683Z,7.76
2022-09-20T23:25:52.313Z,7.71
2022-09-20T23:27:50.649Z,7.67
2022-09-20T23:29:50.194Z,7.67
2022-09-20T23:31:48.723Z,7.71
2022-09-20T23:33:48.829Z,7.77
2022-09-20T23:35:47.389Z,7.76
2022-09-20T23:37:45.729Z,7.74
2022-09-20T23:39:44.091Z,7.67
2022-09-20T23:41:44.859Z,7.60
2022-09-20T23:43:46.419Z,7.54
2022-09-20T23:45:46.119Z,7.50
2022-09-20T23:47:44.295Z,7.45
2022-09-20T23:49:42.507Z,7.41
2022-09-20T23:51:40.598Z,7.47
2022-09-20T23:53:38.821Z,7.54
2022-09-20T23:55:37.085Z,7.62
2022-09-20T23:57:35.239Z,7.64
2022-09-20T23:59:34.180Z,7.67
